Alto, Louisiana
Current Conditions -  °F | °C
As of 9:53 AM on Friday 24 Oct 2014 (Local Time) from KMLU Reporting Station
Haze Haze  
Wind Chill: 58°   Ceiling: Unl
Heat Index: 58°   Visibility: 10mi
Dew Point: 51°   Wind: 3mph
Humidity: 78%   Direction: 350°N
Pressure: 30.2"   Gusts: NA
Location:  32.4475°N, 91.7992°W
Report Text: KMLU 241453Z 35003KT 10SM HZ CLR 14/11 A3020 RMK AO2 SLP224 T01440106 53011
Loading
Personal Weather Stations






























Interactive Weather Map New forecast layout! Learn more

10-Day Weather Forecast

Advertisements
Track Severe Weather on mobile